Time;durP1;ratioP1;P1;durP2;ratioP2;P2;SDS_P1;SDS_P2;PMS_P1;PMS_P2;Temp;Humidity;BMP_temperature;BMP_pressure;BME280_temperature;BME280_humidity;BME280_pressure;Samples;Min_cycle;Max_cycle;Signal;HPM_P1;HPM_P2
2023/10/06 00:03:05;;;;;;;15.20;6.93;;;20.80;90.60;;;;;;4996469;28;20236;-63
2023/10/06 00:05:33;;;;;;;12.83;7.60;;;20.70;90.50;;;;;;4993803;28;20200;-63
2023/10/06 00:08:04;;;;;;;11.43;6.90;;;20.70;90.80;;;;;;4995237;28;20196;-63
2023/10/06 00:10:32;;;;;;;14.37;8.03;;;20.70;90.50;;;;;;4992745;28;20311;-63
2023/10/06 00:12:59;;;;;;;13.37;8.03;;;20.70;90.50;;;;;;4993849;28;20283;-63
2023/10/06 00:15:39;;;;;;;11.03;7.20;;;20.70;90.60;;;;;;4997052;28;20543;-63
2023/10/06 00:18:08;;;;;;;11.67;7.40;;;20.70;90.60;;;;;;4998959;28;20279;-63
2023/10/06 00:20:39;;;;;;;13.30;8.47;;;20.60;90.60;;;;;;4997854;28;20212;-63
2023/10/06 00:23:07;;;;;;;10.23;7.67;;;20.60;90.70;;;;;;4994268;28;20240;-62
2023/10/06 00:25:42;;;;;;;12.10;8.83;;;20.60;90.70;;;;;;4994642;28;20211;-63
2023/10/06 00:28:19;;;;;;;14.83;8.20;;;20.60;90.70;;;;;;4993073;28;20204;-63
2023/10/06 00:30:48;;;;;;;13.83;8.53;;;20.60;90.80;;;;;;4965760;28;20239;-63
2023/10/06 00:33:15;;;;;;;12.93;7.23;;;20.60;90.80;;;;;;5000446;28;20196;-63
2023/10/06 00:35:44;;;;;;;12.93;7.87;;;20.50;90.80;;;;;;4993290;28;20205;-63
2023/10/06 00:38:21;;;;;;;13.70;8.97;;;20.50;90.80;;;;;;4995333;28;20303;-63
2023/10/06 00:40:51;;;;;;;14.30;8.03;;;20.40;90.80;;;;;;4995239;28;20204;-63
2023/10/06 00:43:39;;;;;;;14.40;8.50;;;20.40;90.90;;;;;;4993982;28;20227;-62
2023/10/06 00:46:07;;;;;;;13.90;8.10;;;20.40;91.30;;;;;;4993772;28;20208;-63
2023/10/06 00:48:38;;;;;;;14.63;8.40;;;20.30;91.10;;;;;;4992479;28;20207;-63
2023/10/06 00:51:25;;;;;;;14.47;8.37;;;20.30;91.10;;;;;;4990364;28;20220;-63
2023/10/06 00:53:56;;;;;;;14.57;9.97;;;20.20;91.20;;;;;;4992676;28;20708;-63
2023/10/06 00:56:25;;;;;;;17.20;8.87;;;20.10;91.30;;;;;;4993410;28;20314;-63
2023/10/06 00:58:53;;;;;;;14.40;9.67;;;20.00;91.50;;;;;;4994367;28;20204;-63
2023/10/06 01:01:22;;;;;;;13.50;9.83;;;20.00;91.60;;;;;;4945059;28;1442064;-63
2023/10/06 01:06:36;;;;;;;13.83;8.83;;;19.90;91.80;;;;;;4992085;28;21032;-63
2023/10/06 01:09:15;;;;;;;16.97;9.77;;;20.00;91.70;;;;;;4996771;28;20207;-62
2023/10/06 01:11:44;;;;;;;13.10;9.40;;;19.90;91.80;;;;;;4994931;28;20220;-62
2023/10/06 01:14:14;;;;;;;15.97;10.33;;;19.90;91.80;;;;;;4977891;28;20207;-63
2023/10/06 01:16:42;;;;;;;15.30;10.07;;;19.80;91.90;;;;;;4995352;28;20565;-63
2023/10/06 01:19:33;;;;;;;16.20;10.30;;;19.80;91.90;;;;;;4992299;28;20204;-63
2023/10/06 01:22:41;;;;;;;15.23;9.70;;;19.80;91.90;;;;;;4994142;28;20342;-62
2023/10/06 01:24:54;;;;;;;14.57;9.70;;;19.80;92.00;;;;;;4975964;28;20542;-62
2023/10/06 01:27:30;;;;;;;15.63;8.97;;;19.80;92.00;;;;;;4977197;28;20651;-63
2023/10/06 01:32:46;;;;;;;19.13;9.10;;;19.70;92.00;;;;;;4991951;28;20214;-63
2023/10/06 01:35:15;;;;;;;12.83;9.53;;;19.70;91.90;;;;;;4976453;28;20222;-62
2023/10/06 01:37:43;;;;;;;18.77;10.30;;;19.70;91.80;;;;;;4996548;28;20255;-62
2023/10/06 01:42:57;;;;;;;15.47;9.10;;;19.60;91.90;;;;;;4977209;28;20268;-63
2023/10/06 01:45:24;;;;;;;14.43;8.77;;;19.60;91.90;;;;;;4996005;28;20211;-63
2023/10/06 01:50:39;;;;;;;12.27;8.53;;;19.50;91.90;;;;;;4993357;28;20223;-63
2023/10/06 01:53:07;;;;;;;14.30;8.40;;;19.50;91.90;;;;;;4994454;28;20273;-63
2023/10/06 01:55:38;;;;;;;11.87;8.70;;;19.50;91.80;;;;;;4976294;28;20207;-63
2023/10/06 01:58:11;;;;;;;11.67;8.03;;;19.40;91.80;;;;;;4984109;28;20220;-63
2023/10/06 02:00:38;;;;;;;15.00;8.73;;;19.40;91.70;;;;;;4990441;28;20240;-63
2023/10/06 02:03:10;;;;;;;12.70;8.20;;;19.40;91.70;;;;;;4993558;28;20216;-63
2023/10/06 02:05:40;;;;;;;13.83;8.07;;;19.40;91.70;;;;;;4995259;28;20215;-62
2023/10/06 02:08:09;;;;;;;17.43;9.23;;;19.30;91.70;;;;;;4992798;28;20267;-62
2023/10/06 02:10:37;;;;;;;10.27;8.53;;;19.30;91.70;;;;;;4996749;28;20267;-63
2023/10/06 02:13:07;;;;;;;14.93;8.37;;;19.20;91.70;;;;;;4994205;28;20208;-63
2023/10/06 02:15:35;;;;;;;10.70;8.47;;;19.20;91.70;;;;;;4999095;28;20311;-63
2023/10/06 02:18:02;;;;;;;13.13;8.80;;;19.20;91.70;;;;;;4995090;28;20515;-63
2023/10/06 02:20:30;;;;;;;19.60;8.50;;;19.20;91.70;;;;;;4994977;28;20203;-62
2023/10/06 02:22:58;;;;;;;10.67;8.20;;;19.10;92.00;;;;;;4993274;28;20203;-63
2023/10/06 02:25:26;;;;;;;14.47;8.50;;;19.10;91.80;;;;;;4996079;28;20247;-62
2023/10/06 02:27:53;;;;;;;12.40;8.70;;;19.10;91.80;;;;;;5001890;28;20211;-63
2023/10/06 02:30:35;;;;;;;11.73;8.30;;;19.10;91.80;;;;;;4999688;28;20208;-63
2023/10/06 02:33:05;;;;;;;14.07;9.33;;;19.00;91.80;;;;;;5003542;28;20191;-63
2023/10/06 02:35:42;;;;;;;15.73;8.57;;;19.00;91.80;;;;;;5000107;28;20287;-63
2023/10/06 02:38:09;;;;;;;13.87;8.97;;;19.00;91.80;;;;;;4998173;28;20227;-63
2023/10/06 02:40:45;;;;;;;16.20;9.20;;;19.00;91.90;;;;;;4999170;28;20212;-62
2023/10/06 02:43:16;;;;;;;11.33;8.73;;;18.90;91.90;;;;;;4995899;28;20196;-63
2023/10/06 02:45:43;;;;;;;13.83;8.40;;;18.90;91.90;;;;;;5002459;28;20203;-63
2023/10/06 02:48:21;;;;;;;10.40;8.00;;;18.90;91.90;;;;;;5001451;28;20218;-63
2023/10/06 02:50:50;;;;;;;11.30;9.47;;;18.90;91.90;;;;;;4966283;28;20200;-63
2023/10/06 02:53:23;;;;;;;14.47;9.33;;;18.90;92.00;;;;;;5002592;28;20234;-63
2023/10/06 02:55:56;;;;;;;13.27;9.43;;;18.90;92.10;;;;;;4996112;28;20214;-63
2023/10/06 02:58:27;;;;;;;11.57;8.97;;;18.90;92.10;;;;;;4979318;28;20211;-62
2023/10/06 03:00:55;;;;;;;16.03;10.03;;;18.80;92.20;;;;;;4975215;28;20730;-63
2023/10/06 03:03:33;;;;;;;13.07;9.70;;;18.80;92.20;;;;;;4999126;28;20276;-63
2023/10/06 03:06:07;;;;;;;12.03;10.40;;;18.80;92.20;;;;;;4984257;28;20215;-63
2023/10/06 03:08:35;;;;;;;13.60;10.60;;;18.80;92.30;;;;;;4998427;28;20210;-63
2023/10/06 03:11:03;;;;;;;14.20;11.20;;;18.80;92.30;;;;;;4978747;28;20636;-63
2023/10/06 03:13:36;;;;;;;11.97;9.13;;;18.80;92.40;;;;;;4966864;28;20208;-63
2023/10/06 03:16:10;;;;;;;13.63;9.20;;;18.80;92.40;;;;;;4995359;28;20216;-62
2023/10/06 03:18:39;;;;;;;15.60;9.83;;;18.70;92.40;;;;;;4984601;28;20630;-63
2023/10/06 03:24:05;;;;;;;15.03;9.10;;;18.70;92.50;;;;;;4994993;28;20210;-63
2023/10/06 03:26:34;;;;;;;14.93;10.43;;;18.70;92.50;;;;;;4993350;28;20223;-63
2023/10/06 03:29:03;;;;;;;14.53;9.80;;;18.70;92.50;;;;;;4977419;28;20579;-63
2023/10/06 03:31:46;;;;;;;9.33;8.37;;;18.60;92.60;;;;;;4994653;28;20230;-62
2023/10/06 03:34:22;;;;;;;8.93;8.03;;;18.60;92.70;;;;;;4977131;28;20203;-62
2023/10/06 03:36:52;;;;;;;10.80;8.43;;;18.60;92.80;;;;;;4998959;28;20195;-62
2023/10/06 03:39:31;;;;;;;12.20;8.53;;;18.50;92.80;;;;;;4980242;28;20305;-63
2023/10/06 03:42:00;;;;;;;10.53;8.87;;;18.50;92.90;;;;;;5000057;28;20215;-63
2023/10/06 03:44:30;;;;;;;11.50;8.30;;;18.50;93.00;;;;;;4978436;28;20631;-62
2023/10/06 03:47:01;;;;;;;12.17;9.27;;;18.50;93.00;;;;;;4996383;28;20265;-63
2023/10/06 03:49:33;;;;;;;16.07;9.83;;;18.50;93.10;;;;;;4997541;28;20223;-63
2023/10/06 03:52:03;;;;;;;18.27;10.37;;;18.40;93.00;;;;;;4983283;28;20221;-63
2023/10/06 03:54:30;;;;;;;18.43;9.87;;;18.40;93.00;;;;;;4996906;28;20281;-63
2023/10/06 03:56:58;;;;;;;13.77;8.87;;;18.30;92.90;;;;;;4997514;28;20222;-63
2023/10/06 03:59:25;;;;;;;15.77;10.03;;;18.30;92.90;;;;;;4996987;28;20292;-62
2023/10/06 04:01:52;;;;;;;16.40;10.07;;;18.30;92.80;;;;;;4998436;28;20300;-63
2023/10/06 04:04:22;;;;;;;13.67;10.00;;;18.20;92.80;;;;;;4999033;28;20234;-63
2023/10/06 04:06:50;;;;;;;15.53;11.30;;;18.20;92.80;;;;;;4996806;28;20218;-63
2023/10/06 04:09:27;;;;;;;14.73;10.80;;;18.20;92.70;;;;;;4996909;28;20210;-63
2023/10/06 04:11:56;;;;;;;15.97;11.40;;;18.20;92.80;;;;;;4979485;28;20680;-62
2023/10/06 04:14:27;;;;;;;15.60;11.20;;;18.10;92.80;;;;;;4997231;28;20575;-63
2023/10/06 04:16:54;;;;;;;14.43;10.00;;;18.10;92.80;;;;;;4997422;28;20211;-63
2023/10/06 04:19:21;;;;;;;14.13;11.47;;;18.10;93.00;;;;;;4997918;28;20261;-63
2023/10/06 04:21:48;;;;;;;17.23;12.50;;;18.10;93.10;;;;;;4997134;28;20553;-63
2023/10/06 04:24:15;;;;;;;14.90;10.83;;;18.10;93.20;;;;;;4995834;28;20216;-63
2023/10/06 04:26:43;;;;;;;12.40;10.20;;;18.10;93.40;;;;;;4998599;28;20206;-63
2023/10/06 04:29:13;;;;;;;14.23;10.53;;;18.10;93.40;;;;;;4998976;28;20613;-63
2023/10/06 04:31:40;;;;;;;14.07;10.33;;;18.10;93.40;;;;;;4968934;28;20218;-63
2023/10/06 04:34:09;;;;;;;14.23;10.33;;;18.10;93.40;;;;;;4997052;28;20286;-63
2023/10/06 04:36:37;;;;;;;13.70;10.20;;;18.10;93.30;;;;;;4996236;28;20203;-64
2023/10/06 04:39:09;;;;;;;15.30;12.60;;;18.10;93.30;;;;;;4996726;28;20228;-64
2023/10/06 04:41:37;;;;;;;18.90;14.17;;;18.10;93.30;;;;;;4995364;28;20264;-64
2023/10/06 04:44:04;;;;;;;14.23;12.30;;;18.00;93.50;;;;;;5000654;28;20579;-64
2023/10/06 04:46:31;;;;;;;19.97;14.77;;;18.10;93.60;;;;;;4999257;28;20314;-64
2023/10/06 04:48:58;;;;;;;16.83;13.27;;;18.10;93.60;;;;;;4999351;28;20210;-64
2023/10/06 04:51:27;;;;;;;14.27;11.47;;;18.10;93.70;;;;;;4999832;28;20231;-64
2023/10/06 04:53:54;;;;;;;18.57;10.93;;;18.10;93.70;;;;;;4997370;28;20207;-64
2023/10/06 04:56:22;;;;;;;17.87;12.50;;;18.10;93.60;;;;;;4996787;28;20194;-64
2023/10/06 04:58:49;;;;;;;13.33;11.03;;;18.00;93.50;;;;;;4999100;28;20265;-64
2023/10/06 05:01:16;;;;;;;12.67;10.57;;;18.00;93.50;;;;;;4998474;28;20764;-64
2023/10/06 05:03:43;;;;;;;15.20;12.30;;;18.00;93.50;;;;;;4998685;28;20197;-64
2023/10/06 05:06:16;;;;;;;16.50;12.50;;;18.00;93.50;;;;;;4995106;28;20235;-64
2023/10/06 05:08:48;;;;;;;20.27;12.67;;;17.90;93.60;;;;;;4999523;28;20510;-64
2023/10/06 05:11:18;;;;;;;13.87;11.23;;;18.00;93.60;;;;;;4994362;28;20216;-64
2023/10/06 05:13:52;;;;;;;16.53;11.90;;;17.90;93.50;;;;;;4994009;28;20584;-63
2023/10/06 05:16:22;;;;;;;18.43;12.43;;;17.90;93.50;;;;;;4995828;28;20571;-63
2023/10/06 05:18:51;;;;;;;17.53;12.37;;;17.90;93.50;;;;;;4999810;28;20206;-63
2023/10/06 05:21:18;;;;;;;14.97;11.43;;;17.90;93.60;;;;;;4998480;28;20203;-64
2023/10/06 05:23:46;;;;;;;14.53;12.77;;;17.90;93.60;;;;;;5000551;28;20203;-64
2023/10/06 05:26:14;;;;;;;16.37;12.07;;;17.90;93.60;;;;;;4997078;28;20198;-63
2023/10/06 05:28:42;;;;;;;11.33;10.10;;;17.90;93.60;;;;;;4997581;28;20239;-64
2023/10/06 05:31:10;;;;;;;18.13;10.50;;;17.90;93.60;;;;;;4994601;28;20197;-64
2023/10/06 05:33:40;;;;;;;13.70;11.70;;;17.90;93.60;;;;;;5000414;28;20225;-64
2023/10/06 05:36:12;;;;;;;17.43;11.00;;;17.90;93.50;;;;;;4994927;28;20259;-64
2023/10/06 05:38:45;;;;;;;15.30;11.47;;;17.90;93.50;;;;;;4997376;28;20204;-64
2023/10/06 05:41:12;;;;;;;11.83;10.23;;;17.90;93.50;;;;;;4979697;28;20204;-64
2023/10/06 05:43:41;;;;;;;12.93;11.53;;;18.00;93.40;;;;;;4997853;28;20281;-63
2023/10/06 05:46:09;;;;;;;15.83;10.70;;;18.00;93.40;;;;;;4994186;28;20209;-64
2023/10/06 05:48:38;;;;;;;14.57;12.00;;;18.00;93.70;;;;;;4994554;28;20817;-64
2023/10/06 05:51:08;;;;;;;13.70;11.07;;;18.00;93.30;;;;;;4994117;28;20314;-64
2023/10/06 05:53:43;;;;;;;12.57;11.10;;;18.00;93.30;;;;;;5000070;28;20253;-64
2023/10/06 05:56:11;;;;;;;14.73;12.10;;;18.10;93.40;;;;;;4999622;28;20207;-64
2023/10/06 05:58:40;;;;;;;19.23;12.37;;;18.10;93.40;;;;;;4997525;28;20244;-64
2023/10/06 06:01:10;;;;;;;15.20;12.83;;;18.10;93.60;;;;;;4999304;28;20229;-62
2023/10/06 06:03:44;;;;;;;14.77;11.87;;;18.20;93.40;;;;;;5000232;28;20211;-63
2023/10/06 06:06:14;;;;;;;16.40;12.37;;;18.20;93.50;;;;;;5001556;28;20571;-63
2023/10/06 06:08:47;;;;;;;18.57;14.63;;;18.30;93.70;;;;;;5000253;28;20201;-63
2023/10/06 06:11:16;;;;;;;22.40;16.23;;;18.30;93.80;;;;;;5000621;28;20205;-63
2023/10/06 06:13:43;;;;;;;19.10;14.77;;;18.40;93.90;;;;;;5000841;28;20641;-64
2023/10/06 06:16:18;;;;;;;17.97;13.27;;;18.50;93.90;;;;;;4999401;28;20204;-64
2023/10/06 06:18:46;;;;;;;15.63;13.17;;;18.60;93.90;;;;;;5000069;28;20211;-64
2023/10/06 06:21:16;;;;;;;20.27;14.83;;;18.70;93.90;;;;;;5000572;28;20204;-64
2023/10/06 06:23:46;;;;;;;24.37;17.00;;;18.80;93.80;;;;;;5000495;28;20214;-64
2023/10/06 06:26:16;;;;;;;22.00;15.80;;;18.90;93.80;;;;;;5001743;28;20214;-64
2023/10/06 06:28:44;;;;;;;21.43;15.97;;;18.90;93.80;;;;;;5004487;28;20219;-64
2023/10/06 06:31:19;;;;;;;20.37;15.87;;;19.00;93.70;;;;;;5002800;28;20562;-64
2023/10/06 06:33:55;;;;;;;22.47;15.93;;;19.10;93.70;;;;;;5002322;28;20225;-64
2023/10/06 06:36:25;;;;;;;23.00;14.77;;;19.10;93.60;;;;;;5002640;28;20209;-63
2023/10/06 06:38:53;;;;;;;21.13;15.40;;;19.20;93.60;;;;;;4998981;28;20616;-64
2023/10/06 06:45:28;;;;;;;18.83;12.83;;;19.40;93.50;;;;;;4998771;28;20206;-64
2023/10/06 06:47:55;;;;;;;21.97;13.43;;;19.40;93.30;;;;;;5004878;28;20200;-63
2023/10/06 06:50:23;;;;;;;17.97;13.43;;;19.50;93.10;;;;;;5003469;28;20214;-63
2023/10/06 06:52:54;;;;;;;20.57;14.63;;;19.50;92.80;;;;;;5004725;28;20226;-63
2023/10/06 06:55:21;;;;;;;16.17;13.53;;;19.60;92.70;;;;;;5000305;28;21070;-63
2023/10/06 06:57:49;;;;;;;19.77;13.43;;;19.70;92.50;;;;;;4999690;28;20273;-64
2023/10/06 07:00:24;;;;;;;16.33;13.23;;;19.80;92.30;;;;;;4999626;28;20254;-64
2023/10/06 07:02:56;;;;;;;18.53;13.63;;;19.90;92.00;;;;;;5000836;28;20204;-64
2023/10/06 07:05:23;;;;;;;21.90;13.27;;;20.00;91.80;;;;;;5002794;28;20639;-64
2023/10/06 07:07:51;;;;;;;16.33;12.00;;;20.10;91.60;;;;;;5005657;28;20200;-64
2023/10/06 07:10:22;;;;;;;14.87;11.20;;;20.20;91.40;;;;;;5001826;28;20199;-64
2023/10/06 07:12:51;;;;;;;16.33;11.67;;;20.40;91.20;;;;;;4997609;28;20255;-64
2023/10/06 07:15:19;;;;;;;16.33;12.40;;;20.50;90.90;;;;;;4998816;28;20218;-64
2023/10/06 07:17:46;;;;;;;17.70;12.40;;;20.60;90.60;;;;;;4995956;28;20212;-64
2023/10/06 07:20:16;;;;;;;17.87;11.90;;;20.80;90.40;;;;;;5001661;28;20578;-64
2023/10/06 07:22:45;;;;;;;17.27;12.47;;;20.90;90.40;;;;;;4999338;28;20203;-64
2023/10/06 07:25:16;;;;;;;17.53;14.00;;;20.90;90.30;;;;;;4999127;28;20197;-64
2023/10/06 07:27:46;;;;;;;19.93;12.33;;;21.00;90.20;;;;;;4998469;28;20631;-64
2023/10/06 07:30:16;;;;;;;16.50;12.20;;;21.10;90.10;;;;;;4996111;28;20208;-64
2023/10/06 07:32:44;;;;;;;22.10;12.63;;;21.20;90.00;;;;;;5002062;28;20282;-64
2023/10/06 07:35:14;;;;;;;16.53;12.60;;;21.20;90.00;;;;;;5000466;28;20279;-63
2023/10/06 07:37:42;;;;;;;17.20;12.30;;;21.30;90.00;;;;;;5003299;28;20201;-63
2023/10/06 07:40:14;;;;;;;18.50;12.57;;;21.30;89.90;;;;;;4999888;28;20199;-64
2023/10/06 07:42:46;;;;;;;17.00;11.67;;;21.40;89.90;;;;;;4998900;28;20212;-63
2023/10/06 07:45:13;;;;;;;15.03;12.17;;;21.50;89.60;;;;;;4996471;28;20211;-64
2023/10/06 07:47:44;;;;;;;15.20;12.13;;;21.70;89.30;;;;;;4996769;28;20303;-63
2023/10/06 07:50:15;;;;;;;14.97;11.40;;;21.80;88.70;;;;;;4999504;28;20629;-63
2023/10/06 07:52:44;;;;;;;18.33;11.50;;;22.00;88.10;;;;;;4999563;28;20248;-64
2023/10/06 07:55:11;;;;;;;16.83;11.70;;;22.10;87.10;;;;;;4986878;28;20212;-64
2023/10/06 07:57:45;;;;;;;20.67;12.13;;;22.30;85.50;;;;;;5001328;28;20216;-64
2023/10/06 08:00:30;;;;;;;15.93;10.53;;;22.40;84.20;;;;;;4998175;28;20341;-63
2023/10/06 08:03:00;;;;;;;13.60;9.00;;;22.60;83.10;;;;;;4997126;28;20212;-62
2023/10/06 08:05:28;;;;;;;14.73;9.63;;;22.80;81.80;;;;;;4998398;28;20228;-62
2023/10/06 08:07:58;;;;;;;15.47;8.90;;;22.90;80.70;;;;;;5002250;28;20204;-63
2023/10/06 08:10:26;;;;;;;11.80;8.90;;;23.00;80.10;;;;;;5003335;28;20215;-63
2023/10/06 08:13:01;;;;;;;10.33;7.93;;;23.20;79.60;;;;;;5000393;28;20298;-62
2023/10/06 08:15:32;;;;;;;13.07;9.13;;;23.30;78.10;;;;;;4997770;28;20192;-64
2023/10/06 08:18:00;;;;;;;35.67;11.70;;;23.50;77.20;;;;;;4995443;28;20271;-62
2023/10/06 08:20:29;;;;;;;16.73;9.73;;;23.60;77.40;;;;;;4995975;28;20192;-64
2023/10/06 08:22:57;;;;;;;14.93;9.93;;;23.80;77.20;;;;;;4999109;28;20204;-65
2023/10/06 08:25:24;;;;;;;15.00;10.93;;;23.90;76.70;;;;;;4997485;28;20331;-64
2023/10/06 08:27:52;;;;;;;12.90;9.17;;;24.00;76.50;;;;;;5000736;28;20287;-63
2023/10/06 08:30:19;;;;;;;13.33;9.50;;;24.10;76.40;;;;;;4998013;28;20212;-63
2023/10/06 08:32:52;;;;;;;20.27;10.17;;;24.10;76.10;;;;;;4998605;28;20232;-65
2023/10/06 08:35:20;;;;;;;18.57;9.40;;;24.10;75.80;;;;;;4996828;28;20200;-63
2023/10/06 08:37:49;;;;;;;15.77;11.10;;;24.20;75.80;;;;;;4995527;28;20201;-64
2023/10/06 08:40:19;;;;;;;17.00;9.27;;;24.30;75.40;;;;;;4975037;28;20201;-63
2023/10/06 08:42:48;;;;;;;12.93;9.17;;;24.40;75.00;;;;;;4992263;28;20223;-62
2023/10/06 08:45:21;;;;;;;13.77;10.00;;;24.50;72.20;;;;;;4994202;28;20279;-62
2023/10/06 08:47:58;;;;;;;17.33;10.27;;;24.60;72.40;;;;;;4978630;28;20207;-63
2023/10/06 08:50:31;;;;;;;36.63;12.57;;;24.60;71.60;;;;;;4979295;28;20537;-62
2023/10/06 08:53:09;;;;;;;11.97;9.40;;;24.60;72.10;;;;;;4995724;28;20238;-62
2023/10/06 08:55:38;;;;;;;13.30;9.90;;;24.80;72.60;;;;;;4994103;28;20208;-63
2023/10/06 08:58:08;;;;;;;12.80;10.40;;;24.90;72.40;;;;;;4995016;28;20628;-63
2023/10/06 09:00:36;;;;;;;12.03;9.13;;;25.10;71.80;;;;;;4995795;28;20244;-63
2023/10/06 09:03:07;;;;;;;13.70;10.40;;;25.20;71.50;;;;;;4997631;28;20294;-64
2023/10/06 09:05:38;;;;;;;16.27;9.80;;;25.20;70.70;;;;;;4996482;28;20228;-64
2023/10/06 09:08:08;;;;;;;12.77;10.87;;;25.30;70.70;;;;;;4995557;28;20200;-63
2023/10/06 09:10:40;;;;;;;16.53;9.07;;;25.40;70.80;;;;;;4994728;28;20239;-64
2023/10/06 09:13:08;;;;;;;13.60;9.17;;;25.50;70.90;;;;;;4995756;28;20312;-65
2023/10/06 09:15:35;;;;;;;11.60;9.30;;;25.60;70.70;;;;;;4995184;28;20224;-64
2023/10/06 09:18:24;;;;;;;18.87;9.83;;;25.70;70.50;;;;;;4995576;28;20679;-64
2023/10/06 09:20:51;;;;;;;14.87;9.63;;;25.80;69.20;;;;;;4996009;28;20281;-64
2023/10/06 09:23:32;;;;;;;9.87;8.17;;;25.90;69.10;;;;;;4996017;28;20212;-64
2023/10/06 09:26:01;;;;;;;19.73;8.33;;;25.90;68.30;;;;;;4995804;28;20200;-63
2023/10/06 09:28:30;;;;;;;14.40;8.80;;;25.90;68.60;;;;;;4995412;28;20522;-65
2023/10/06 09:31:01;;;;;;;13.87;8.60;;;26.00;68.20;;;;;;4995860;28;20200;-62
2023/10/06 09:33:35;;;;;;;12.73;6.17;;;26.00;68.00;;;;;;4998346;28;20217;-64
2023/10/06 09:36:07;;;;;;;7.50;5.33;;;26.10;67.70;;;;;;4995063;28;20198;-63
2023/10/06 09:38:36;;;;;;;8.47;5.80;;;26.20;67.30;;;;;;4997454;28;20201;-64
2023/10/06 09:41:07;;;;;;;10.73;5.83;;;26.30;64.50;;;;;;4993619;28;20599;-65
2023/10/06 09:43:38;;;;;;;10.50;6.03;;;26.30;64.00;;;;;;4996212;28;20211;-64
2023/10/06 09:46:15;;;;;;;10.83;5.73;;;26.30;64.00;;;;;;4994536;28;20217;-61
2023/10/06 09:48:43;;;;;;;8.60;6.67;;;26.30;64.40;;;;;;4995107;28;20200;-65
2023/10/06 09:51:12;;;;;;;10.27;5.73;;;26.40;63.80;;;;;;4999238;28;20207;-61
2023/10/06 09:53:47;;;;;;;11.40;5.83;;;26.50;63.60;;;;;;4997461;28;20208;-63
2023/10/06 09:56:17;;;;;;;7.63;5.47;;;26.60;62.50;;;;;;4998206;28;20646;-62
2023/10/06 09:58:48;;;;;;;7.87;5.00;;;26.60;62.10;;;;;;4996831;28;20207;-63
2023/10/06 10:01:16;;;;;;;12.13;5.33;;;26.70;61.90;;;;;;4995732;28;20241;-64
2023/10/06 10:03:44;;;;;;;7.60;4.90;;;26.70;62.10;;;;;;4994877;28;20662;-65
2023/10/06 10:06:14;;;;;;;7.10;5.40;;;26.80;62.10;;;;;;4997843;28;20204;-65
2023/10/06 10:08:41;;;;;;;9.00;4.67;;;27.00;62.00;;;;;;4996286;28;20211;-66
2023/10/06 10:11:28;;;;;;;10.23;5.97;;;27.10;61.90;;;;;;5000712;28;20218;-64
2023/10/06 10:14:07;;;;;;;8.00;4.73;;;27.10;61.60;;;;;;4997743;28;20670;-64
2023/10/06 10:17:02;;;;;;;6.93;4.60;;;27.20;61.70;;;;;;4995504;28;20207;-63
2023/10/06 10:19:30;;;;;;;7.63;3.97;;;27.30;61.40;;;;;;4982334;28;20221;-64
2023/10/06 10:21:58;;;;;;;5.83;4.37;;;27.30;60.90;;;;;;5001394;28;20246;-64
2023/10/06 10:24:26;;;;;;;8.93;4.73;;;27.40;60.40;;;;;;4997441;28;20204;-62
2023/10/06 10:26:56;;;;;;;4.97;3.90;;;27.50;59.50;;;;;;5003330;28;20205;-63
2023/10/06 10:29:24;;;;;;;8.77;4.67;;;27.50;59.20;;;;;;4996298;28;20219;-64
2023/10/06 10:31:54;;;;;;;8.73;4.63;;;27.60;57.80;;;;;;4992829;28;20639;-64
2023/10/06 10:34:38;;;;;;;7.70;4.37;;;27.60;57.10;;;;;;4995265;28;20215;-63
2023/10/06 10:37:08;;;;;;;8.10;4.17;;;27.60;56.60;;;;;;4994282;28;20235;-63
2023/10/06 10:39:50;;;;;;;9.87;4.97;;;27.70;56.20;;;;;;4998622;28;20225;-64
2023/10/06 10:42:38;;;;;;;10.20;4.40;;;27.70;55.60;;;;;;5001203;28;20195;-64
2023/10/06 10:45:34;;;;;;;7.50;3.87;;;27.70;55.40;;;;;;4996939;28;20279;-64
2023/10/06 10:48:06;;;;;;;8.50;4.33;;;27.80;55.90;;;;;;4984016;28;20251;-64
2023/10/06 10:50:52;;;;;;;9.03;4.67;;;27.80;54.80;;;;;;4998990;28;20195;-65
2023/10/06 10:53:22;;;;;;;8.43;4.43;;;27.90;54.10;;;;;;4997456;28;20239;-65
2023/10/06 10:55:50;;;;;;;6.60;4.13;;;27.90;54.70;;;;;;5003484;28;20200;-64
2023/10/06 10:58:49;;;;;;;6.70;4.80;;;27.90;54.30;;;;;;5000966;28;20207;-64
2023/10/06 11:01:31;;;;;;;9.93;4.90;;;27.90;53.80;;;;;;4998290;28;20314;-64
2023/10/06 11:04:53;;;;;;;7.63;5.07;;;27.90;53.80;;;;;;4999732;28;20295;-64
2023/10/06 11:07:11;;;;;;;9.13;4.53;;;27.90;53.70;;;;;;4992514;28;20244;-64
2023/10/06 11:12:16;;;;;;;7.10;4.17;;;28.00;54.20;;;;;;5001601;28;20679;-64
2023/10/06 11:15:03;;;;;;;9.10;4.23;;;28.00;54.10;;;;;;4995727;28;20271;-65
2023/10/06 11:17:32;;;;;;;7.30;4.40;;;28.10;53.50;;;;;;4996831;28;20235;-64
2023/10/06 11:20:00;;;;;;;8.30;4.77;;;28.20;53.90;;;;;;4995590;28;20635;-64
2023/10/06 11:22:32;;;;;;;8.87;4.37;;;28.30;53.40;;;;;;4996830;28;20208;-64
2023/10/06 11:25:06;;;;;;;6.73;4.33;;;28.30;52.60;;;;;;4994541;28;20204;-64
2023/10/06 11:27:33;;;;;;;8.77;5.60;;;28.30;53.10;;;;;;4997376;28;20205;-64
2023/10/06 11:30:08;;;;;;;10.07;6.83;;;28.40;52.60;;;;;;4996763;28;20299;-64
2023/10/06 11:32:37;;;;;;;11.47;6.20;;;28.40;53.30;;;;;;4998243;28;20206;-64
2023/10/06 11:35:05;;;;;;;12.23;8.07;;;28.30;53.30;;;;;;4997399;28;20282;-64
2023/10/06 11:37:32;;;;;;;9.00;6.57;;;28.30;53.50;;;;;;4997791;28;20683;-64
2023/10/06 11:39:59;;;;;;;10.17;6.90;;;28.20;53.60;;;;;;4997730;28;20291;-64
2023/10/06 11:42:41;;;;;;;8.87;6.80;;;28.10;54.10;;;;;;4997448;28;20211;-64
2023/10/06 11:45:25;;;;;;;15.87;6.77;;;28.20;54.60;;;;;;4997167;28;20208;-64
2023/10/06 11:47:53;;;;;;;11.73;8.63;;;28.20;54.10;;;;;;4996257;28;20231;-64
2023/10/06 11:50:25;;;;;;;11.07;8.77;;;28.20;53.90;;;;;;4996810;28;20212;-64
2023/10/06 11:52:53;;;;;;;14.43;8.97;;;28.20;53.90;;;;;;4997333;28;20208;-64
2023/10/06 11:55:37;;;;;;;10.17;8.80;;;28.20;54.10;;;;;;4999013;28;20204;-64
2023/10/06 11:58:08;;;;;;;15.37;10.13;;;28.30;53.80;;;;;;4997457;28;20215;-64
2023/10/06 12:00:38;;;;;;;15.57;10.23;;;28.30;53.70;;;;;;4996851;28;20242;-64
2023/10/06 12:03:12;;;;;;;14.33;9.57;;;28.20;53.30;;;;;;4995907;28;20228;-64
2023/10/06 12:05:52;;;;;;;14.77;9.30;;;28.20;54.00;;;;;;4999088;28;20192;-64
2023/10/06 12:08:19;;;;;;;13.67;9.00;;;28.20;54.70;;;;;;4998193;28;20203;-65
2023/10/06 12:10:48;;;;;;;11.83;8.13;;;28.20;54.00;;;;;;4998560;28;20196;-64
2023/10/06 12:13:15;;;;;;;11.83;8.50;;;28.20;54.20;;;;;;4998529;28;20599;-64
2023/10/06 12:15:45;;;;;;;12.00;7.60;;;28.20;54.00;;;;;;4997079;28;20208;-64
2023/10/06 12:18:16;;;;;;;7.83;7.03;;;28.30;54.10;;;;;;4996511;28;20567;-64
2023/10/06 12:20:43;;;;;;;10.67;7.60;;;28.30;54.50;;;;;;4997806;28;20224;-65
2023/10/06 12:23:10;;;;;;;11.80;6.87;;;28.30;54.80;;;;;;4997730;28;20271;-65
2023/10/06 12:25:37;;;;;;;13.67;8.20;;;28.40;54.70;;;;;;4998148;28;20212;-63
2023/10/06 12:28:05;;;;;;;10.17;7.70;;;28.50;54.50;;;;;;5000782;28;20208;-64
2023/10/06 12:30:32;;;;;;;14.53;8.33;;;28.60;54.30;;;;;;4997142;28;20196;-64
2023/10/06 12:32:59;;;;;;;10.17;7.73;;;28.60;54.10;;;;;;4996943;28;20197;-65
2023/10/06 12:35:28;;;;;;;12.43;9.60;;;28.70;54.00;;;;;;4998185;28;20242;-64
2023/10/06 12:37:56;;;;;;;11.93;7.30;;;28.70;53.70;;;;;;4997829;28;20208;-64
2023/10/06 12:40:23;;;;;;;13.70;8.60;;;28.60;53.20;;;;;;5000002;28;20208;-65
2023/10/06 12:42:50;;;;;;;10.60;8.57;;;28.50;52.90;;;;;;4999114;28;20201;-65
2023/10/06 12:45:17;;;;;;;13.50;8.10;;;28.40;52.70;;;;;;5000529;28;20223;-65
2023/10/06 12:47:49;;;;;;;16.00;8.17;;;28.30;53.40;;;;;;4998516;28;20207;-65
2023/10/06 12:50:20;;;;;;;11.53;8.07;;;28.30;53.10;;;;;;4996360;28;20208;-65
2023/10/06 12:52:51;;;;;;;10.63;7.03;;;28.20;53.80;;;;;;4994592;28;20209;-64
2023/10/06 12:55:24;;;;;;;9.23;6.60;;;28.10;53.60;;;;;;5001545;28;20686;-64
2023/10/06 12:57:53;;;;;;;9.00;6.33;;;28.00;53.90;;;;;;4997565;28;20204;-64
2023/10/06 13:00:20;;;;;;;13.70;7.03;;;28.00;54.10;;;;;;4999904;28;20565;-64
2023/10/06 13:02:48;;;;;;;11.87;7.57;;;28.10;54.10;;;;;;5000154;28;20200;-64
2023/10/06 13:05:22;;;;;;;16.70;10.87;;;28.10;53.50;;;;;;4995916;28;20296;-64
2023/10/06 13:07:51;;;;;;;21.10;12.50;;;28.10;53.60;;;;;;4996263;28;20287;-64
2023/10/06 13:10:22;;;;;;;12.40;10.90;;;28.10;53.90;;;;;;4995978;28;20205;-64
2023/10/06 13:12:50;;;;;;;17.67;12.33;;;28.10;53.70;;;;;;4997104;28;20600;-65
2023/10/06 13:15:19;;;;;;;15.97;11.67;;;28.00;54.80;;;;;;5002925;28;20212;-64